Aviation Digital Data Service (ADDS)

Output produced by METARs form (0405 UTC 26 April 2019)
found at http://www.aviationweather.gov/metar/data/
 
METAR text: YMAV 260401Z AUTO 26024G35KT 9999 // SCT045 BKN057 14/04 Q1018
Conditions at: YMAV (AVALON AIRPORT , AU) observed 0401 UTC 26 April 2019
Temperature: 14.0°C (57°F)
Dewpoint: 4.0°C (39°F) [RH = 51%]
Pressure (altimeter): 30.06 inches Hg (1018.0 mb)
Winds: from the W (260 degrees) at 28 MPH (24 knots; 12.3 m/s)
gusting to 40 MPH (35 knots; 18.0 m/s)
Visibility: 6 or more miles (10+ km)
Ceiling: 5700 feet AGL
Clouds: scattered clouds at 4500 feet AGL
broken clouds at 5700 feet AGL
Weather: no significant weather observed at this time

METAR text: YMAV 260330Z AUTO 27021G31KT 9999 // SCT039 SCT053 BKN067 14/05 Q1017
Conditions at: YMAV (AVALON AIRPORT , AU) observed 0330 UTC 26 April 2019
Temperature: 14.0°C (57°F)
Dewpoint: 5.0°C (41°F) [RH = 55%]
Pressure (altimeter): 30.03 inches Hg (1017.0 mb)
Winds: from the W (270 degrees) at 24 MPH (21 knots; 10.8 m/s)
gusting to 36 MPH (31 knots; 15.9 m/s)
Visibility: 6 or more miles (10+ km)
Ceiling: 6700 feet AGL
Clouds: scattered clouds at 3900 feet AGL
scattered clouds at 5300 feet AGL
broken clouds at 6700 feet AGL
Weather: no significant weather observed at this time

METAR text: YMAV 260301Z AUTO 25021G31KT 9999 -SHRA SCT040 SCT048 SCT065 14/05 Q1017
Conditions at: YMAV (AVALON AIRPORT , AU) observed 0301 UTC 26 April 2019
Temperature: 14.0°C (57°F)
Dewpoint: 5.0°C (41°F) [RH = 55%]
Pressure (altimeter): 30.03 inches Hg (1017.0 mb)
Winds: from the WSW (250 degrees) at 24 MPH (21 knots; 10.8 m/s)
gusting to 36 MPH (31 knots; 15.9 m/s)
Visibility: 6 or more miles (10+ km)
Ceiling: at least 12,000 feet AGL
Clouds: scattered clouds at 4000 feet AGL
scattered clouds at 4800 feet AGL
scattered clouds at 6500 feet AGL
Weather: -SHRA  (light rain showers)

METAR text: YMAV 260230Z AUTO 26021G31KT 9999 DZ SCT052 BKN062 14/06 Q1017
Conditions at: YMAV (AVALON AIRPORT , AU) observed 0230 UTC 26 April 2019
Temperature: 14.0°C (57°F)
Dewpoint: 6.0°C (43°F) [RH = 58%]
Pressure (altimeter): 30.03 inches Hg (1017.0 mb)
Winds: from the W (260 degrees) at 24 MPH (21 knots; 10.8 m/s)
gusting to 36 MPH (31 knots; 15.9 m/s)
Visibility: 6 or more miles (10+ km)
Ceiling: 6200 feet AGL
Clouds: scattered clouds at 5200 feet AGL
broken clouds at 6200 feet AGL
Weather: DZ  (moderate drizzle)

METAR text: YMAV 260206Z AUTO 26026G37KT 9999 // SCT043 14/05 Q1018 RF00.0/000.0
Conditions at: YMAV (AVALON AIRPORT , AU) observed 0206 UTC 26 April 2019
Temperature: 14.0°C (57°F)
Dewpoint: 5.0°C (41°F) [RH = 55%]
Pressure (altimeter): 30.06 inches Hg (1018.0 mb)
Winds: from the W (260 degrees) at 30 MPH (26 knots; 13.4 m/s)
gusting to 43 MPH (37 knots; 19.0 m/s)
Visibility: 6 or more miles (10+ km)
Ceiling: at least 12,000 feet AGL
Clouds: scattered clouds at 4300 feet AGL
Weather: no significant weather observed at this time

METAR text: YMAV 260200Z AUTO 27025KT 9999 // SCT041 15/06 Q1017
Conditions at: YMAV (AVALON AIRPORT , AU) observed 0200 UTC 26 April 2019
Temperature: 15.0°C (59°F)
Dewpoint: 6.0°C (43°F) [RH = 55%]
Pressure (altimeter): 30.03 inches Hg (1017.0 mb)
Winds: from the W (270 degrees) at 29 MPH (25 knots; 12.9 m/s)
Visibility: 6 or more miles (10+ km)
Ceiling: at least 12,000 feet AGL
Clouds: scattered clouds at 4100 feet AGL
Weather: no significant weather observed at this time

METAR text: YMAV 260131Z AUTO 27022G32KT 9999 // SCT041 SCT047 14/05 Q1017
Conditions at: YMAV (AVALON AIRPORT , AU) observed 0131 UTC 26 April 2019
Temperature: 14.0°C (57°F)
Dewpoint: 5.0°C (41°F) [RH = 55%]
Pressure (altimeter): 30.03 inches Hg (1017.0 mb)
Winds: from the W (270 degrees) at 25 MPH (22 knots; 11.3 m/s)
gusting to 37 MPH (32 knots; 16.5 m/s)
Visibility: 6 or more miles (10+ km)
Ceiling: at least 12,000 feet AGL
Clouds: scattered clouds at 4100 feet AGL
scattered clouds at 4700 feet AGL
Weather: no significant weather observed at this time

METAR text: YMAV 260100Z AUTO 27025G35KT 9999 // SCT043 14/05 Q1017 RF00.0/000.0
Conditions at: YMAV (AVALON AIRPORT , AU) observed 0100 UTC 26 April 2019
Temperature: 14.0°C (57°F)
Dewpoint: 5.0°C (41°F) [RH = 55%]
Pressure (altimeter): 30.03 inches Hg (1017.0 mb)
Winds: from the W (270 degrees) at 29 MPH (25 knots; 12.9 m/s)
gusting to 40 MPH (35 knots; 18.0 m/s)
Visibility: 6 or more miles (10+ km)
Ceiling: at least 12,000 feet AGL
Clouds: scattered clouds at 4300 feet AGL
Weather: no significant weather observed at this time

METAR text: YMAV 260052Z AUTO 26023G35KT 9999 // SCT045 14/06 Q1017 RF00.0/000.0
Conditions at: YMAV (AVALON AIRPORT , AU) observed 0052 UTC 26 April 2019
Temperature: 14.0°C (57°F)
Dewpoint: 6.0°C (43°F) [RH = 58%]
Pressure (altimeter): 30.03 inches Hg (1017.0 mb)
Winds: from the W (260 degrees) at 26 MPH (23 knots; 11.8 m/s)
gusting to 40 MPH (35 knots; 18.0 m/s)
Visibility: 6 or more miles (10+ km)
Ceiling: at least 12,000 feet AGL
Clouds: scattered clouds at 4500 feet AGL
Weather: no significant weather observed at this time

METAR text: YMAV 260030Z AUTO 27017KT 9999 // SCT037 SCT047 SCT055 13/08 Q1017
Conditions at: YMAV (AVALON AIRPORT , AU) observed 0030 UTC 26 April 2019
Temperature: 13.0°C (55°F)
Dewpoint: 8.0°C (46°F) [RH = 72%]
Pressure (altimeter): 30.03 inches Hg (1017.0 mb)
Winds: from the W (270 degrees) at 20 MPH (17 knots; 8.7 m/s)
Visibility: 6 or more miles (10+ km)
Ceiling: at least 12,000 feet AGL
Clouds: scattered clouds at 3700 feet AGL
scattered clouds at 4700 feet AGL
scattered clouds at 5500 feet AGL
Weather: no significant weather observed at this time

METAR text: YMAV 260011Z AUTO 28025G36KT 8000 -RA BKN037 BKN047 OVC053 11/07 Q1017
Conditions at: YMAV (AVALON AIRPORT , AU) observed 0011 UTC 26 April 2019
Temperature: 11.0°C (52°F)
Dewpoint: 7.0°C (45°F) [RH = 76%]
Pressure (altimeter): 30.03 inches Hg (1017.0 mb)
Winds: from the W (280 degrees) at 29 MPH (25 knots; 12.9 m/s)
gusting to 41 MPH (36 knots; 18.5 m/s)
Visibility: 5 miles ( 8 km)
Ceiling: 3700 feet AGL
Clouds: broken clouds at 3700 feet AGL
broken clouds at 4700 feet AGL
overcast cloud deck at 5300 feet AGL
Weather: -RA  (light rain)

METAR text: YMAV 260007Z AUTO 27031KT 9999 +DZ BKN037 BKN047 BKN055 11/06 Q1017
Conditions at: YMAV (AVALON AIRPORT , AU) observed 0007 UTC 26 April 2019
Temperature: 11.0°C (52°F)
Dewpoint: 6.0°C (43°F) [RH = 71%]
Pressure (altimeter): 30.03 inches Hg (1017.0 mb)
Winds: from the W (270 degrees) at 36 MPH (31 knots; 15.9 m/s)
Visibility: 6 or more miles (10+ km)
Ceiling: 3700 feet AGL
Clouds: broken clouds at 3700 feet AGL
broken clouds at 4700 feet AGL
broken clouds at 5500 feet AGL
Weather: +DZ  (heavy drizzle)

METAR text: YMAV 260003Z AUTO 26018G28KT 9999 // BKN037 BKN047 BKN055 13/06 Q1017
Conditions at: YMAV (AVALON AIRPORT , AU) observed 0003 UTC 26 April 2019
Temperature: 13.0°C (55°F)
Dewpoint: 6.0°C (43°F) [RH = 62%]
Pressure (altimeter): 30.03 inches Hg (1017.0 mb)
Winds: from the W (260 degrees) at 21 MPH (18 knots; 9.3 m/s)
gusting to 32 MPH (28 knots; 14.4 m/s)
Visibility: 6 or more miles (10+ km)
Ceiling: 3700 feet AGL
Clouds: broken clouds at 3700 feet AGL
broken clouds at 4700 feet AGL
broken clouds at 5500 feet AGL
Weather: no significant weather observed at this time

METAR text: YMAV 260000Z AUTO 27018KT 9999 // BKN037 BKN047 BKN055 13/06 Q1017
Conditions at: YMAV (AVALON AIRPORT , AU) observed 0000 UTC 26 April 2019
Temperature: 13.0°C (55°F)
Dewpoint: 6.0°C (43°F) [RH = 62%]
Pressure (altimeter): 30.03 inches Hg (1017.0 mb)
Winds: from the W (270 degrees) at 21 MPH (18 knots; 9.3 m/s)
Visibility: 6 or more miles (10+ km)
Ceiling: 3700 feet AGL
Clouds: broken clouds at 3700 feet AGL
broken clouds at 4700 feet AGL
broken clouds at 5500 feet AGL
Weather: no significant weather observed at this time

METAR text: YMAV 252330Z AUTO 27015KT 9999 // SCT035 SCT043 SCT071 13/08 Q1017
Conditions at: YMAV (AVALON AIRPORT , AU) observed 2330 UTC 25 April 2019
Temperature: 13.0°C (55°F)
Dewpoint: 8.0°C (46°F) [RH = 72%]
Pressure (altimeter): 30.03 inches Hg (1017.0 mb)
Winds: from the W (270 degrees) at 17 MPH (15 knots; 7.7 m/s)
Visibility: 6 or more miles (10+ km)
Ceiling: at least 12,000 feet AGL
Clouds: scattered clouds at 3500 feet AGL
scattered clouds at 4300 feet AGL
scattered clouds at 7100 feet AGL
Weather: no significant weather observed at this time

METAR text: YMAV 252300Z AUTO 28014KT 9999 // OVC065 12/08 Q1017 RF00.0/001.6
Conditions at: YMAV (AVALON AIRPORT , AU) observed 2300 UTC 25 April 2019
Temperature: 12.0°C (54°F)
Dewpoint: 8.0°C (46°F) [RH = 76%]
Pressure (altimeter): 30.03 inches Hg (1017.0 mb)
Winds: from the W (280 degrees) at 16 MPH (14 knots; 7.2 m/s)
Visibility: 6 or more miles (10+ km)
Ceiling: 6500 feet AGL
Clouds: overcast cloud deck at 6500 feet AGL
Weather: no significant weather observed at this time

METAR text: YMAV 252230Z AUTO 28014KT 9999 // OVC057 12/08 Q1016 RF00.0/001.6
Conditions at: YMAV (AVALON AIRPORT , AU) observed 2230 UTC 25 April 2019
Temperature: 12.0°C (54°F)
Dewpoint: 8.0°C (46°F) [RH = 76%]
Pressure (altimeter): 30.00 inches Hg (1016.0 mb)
Winds: from the W (280 degrees) at 16 MPH (14 knots; 7.2 m/s)
Visibility: 6 or more miles (10+ km)
Ceiling: 5700 feet AGL
Clouds: overcast cloud deck at 5700 feet AGL
Weather: no significant weather observed at this time

METAR text: YMAV 252200Z AUTO 26012KT 9999 // SCT031 SCT040 BKN046 12/09 Q1016
Conditions at: YMAV (AVALON AIRPORT , AU) observed 2200 UTC 25 April 2019
Temperature: 12.0°C (54°F)
Dewpoint: 9.0°C (48°F) [RH = 82%]
Pressure (altimeter): 30.00 inches Hg (1016.0 mb)
Winds: from the W (260 degrees) at 14 MPH (12 knots; 6.2 m/s)
Visibility: 6 or more miles (10+ km)
Ceiling: 4600 feet AGL
Clouds: scattered clouds at 3100 feet AGL
scattered clouds at 4000 feet AGL
broken clouds at 4600 feet AGL
Weather: no significant weather observed at this time

METAR text: YMAV 252130Z AUTO 26015KT 9999 // OVC047 12/09 Q1015 RERA RF00.0/001.6
Conditions at: YMAV (AVALON AIRPORT , AU) observed 2130 UTC 25 April 2019
Temperature: 12.0°C (54°F)
Dewpoint: 9.0°C (48°F) [RH = 82%]
Pressure (altimeter): 29.97 inches Hg (1015.0 mb)
Winds: from the W (260 degrees) at 17 MPH (15 knots; 7.7 m/s)
Visibility: 6 or more miles (10+ km)
Ceiling: 4700 feet AGL
Clouds: overcast cloud deck at 4700 feet AGL
Weather: no significant weather observed at this time

METAR text: YMAV 252107Z AUTO 25017KT 9999 -SHRA SCT012 SCT021 OVC048 12/10 Q1015 RESHRA
Conditions at: YMAV (AVALON AIRPORT , AU) observed 2107 UTC 25 April 2019
Temperature: 12.0°C (54°F)
Dewpoint: 10.0°C (50°F) [RH = 88%]
Pressure (altimeter): 29.97 inches Hg (1015.0 mb)
Winds: from the WSW (250 degrees) at 20 MPH (17 knots; 8.7 m/s)
Visibility: 6 or more miles (10+ km)
Ceiling: 4800 feet AGL
Clouds: scattered clouds at 1200 feet AGL
scattered clouds at 2100 feet AGL
overcast cloud deck at 4800 feet AGL
Weather: -SHRA  (light rain showers)

METAR text: YMAV 252100Z AUTO 25017KT 9999 -SHRA SCT012 SCT017 BKN022 12/11 Q1015 RESHRA
Conditions at: YMAV (AVALON AIRPORT , AU) observed 2100 UTC 25 April 2019
Temperature: 12.0°C (54°F)
Dewpoint: 11.0°C (52°F) [RH = 94%]
Pressure (altimeter): 29.97 inches Hg (1015.0 mb)
Winds: from the WSW (250 degrees) at 20 MPH (17 knots; 8.7 m/s)
Visibility: 6 or more miles (10+ km)
Ceiling: 2200 feet AGL
Clouds: scattered clouds at 1200 feet AGL
scattered clouds at 1700 feet AGL
broken clouds at 2200 feet AGL
Weather: -SHRA  (light rain showers)

METAR text: YMAV 252042Z AUTO 26016G28KT 3600 RA SCT012 BKN017 BKN023 12/11 Q1014
Conditions at: YMAV (AVALON AIRPORT , AU) observed 2042 UTC 25 April 2019
Temperature: 12.0°C (54°F)
Dewpoint: 11.0°C (52°F) [RH = 94%]
Pressure (altimeter): 29.94 inches Hg (1014.0 mb)
Winds: from the W (260 degrees) at 18 MPH (16 knots; 8.2 m/s)
gusting to 32 MPH (28 knots; 14.4 m/s)
Visibility: 2.24 miles (3.60 km)
Ceiling: 1700 feet AGL
Clouds: scattered clouds at 1200 feet AGL
broken clouds at 1700 feet AGL
broken clouds at 2300 feet AGL
Weather: RA  (moderate rain)

METAR text: YMAV 252030Z AUTO 26019KT 3500 RA SCT017 BKN023 BKN029 12/11 Q1014
Conditions at: YMAV (AVALON AIRPORT , AU) observed 2030 UTC 25 April 2019
Temperature: 12.0°C (54°F)
Dewpoint: 11.0°C (52°F) [RH = 94%]
Pressure (altimeter): 29.94 inches Hg (1014.0 mb)
Winds: from the W (260 degrees) at 22 MPH (19 knots; 9.8 m/s)
Visibility: 2.17 miles (3.49 km)
Ceiling: 2300 feet AGL
Clouds: scattered clouds at 1700 feet AGL
broken clouds at 2300 feet AGL
broken clouds at 2900 feet AGL
Weather: RA  (moderate rain)

METAR text: YMAV 252025Z AUTO 26020KT 6000 RA SCT019 BKN025 OVC033 13/10 Q1014
Conditions at: YMAV (AVALON AIRPORT , AU) observed 2025 UTC 25 April 2019
Temperature: 13.0°C (55°F)
Dewpoint: 10.0°C (50°F) [RH = 82%]
Pressure (altimeter): 29.94 inches Hg (1014.0 mb)
Winds: from the W (260 degrees) at 23 MPH (20 knots; 10.3 m/s)
Visibility: 4 miles ( 6 km)
Ceiling: 2500 feet AGL
Clouds: scattered clouds at 1900 feet AGL
broken clouds at 2500 feet AGL
overcast cloud deck at 3300 feet AGL
Weather: RA  (moderate rain)

METAR text: YMAV 252022Z AUTO 25021KT 9999 +RA SCT017 BKN025 OVC035 13/10 Q1014
Conditions at: YMAV (AVALON AIRPORT , AU) observed 2022 UTC 25 April 2019
Temperature: 13.0°C (55°F)
Dewpoint: 10.0°C (50°F) [RH = 82%]
Pressure (altimeter): 29.94 inches Hg (1014.0 mb)
Winds: from the WSW (250 degrees) at 24 MPH (21 knots; 10.8 m/s)
Visibility: 6 or more miles (10+ km)
Ceiling: 2500 feet AGL
Clouds: scattered clouds at 1700 feet AGL
broken clouds at 2500 feet AGL
overcast cloud deck at 3500 feet AGL
Weather: +RA  (heavy rain)

METAR text: YMAV 252000Z AUTO 29012KT 9999 // BKN025 OVC036 14/11 Q1014
Conditions at: YMAV (AVALON AIRPORT , AU) observed 2000 UTC 25 April 2019
Temperature: 14.0°C (57°F)
Dewpoint: 11.0°C (52°F) [RH = 82%]
Pressure (altimeter): 29.94 inches Hg (1014.0 mb)
Winds: from the WNW (290 degrees) at 14 MPH (12 knots; 6.2 m/s)
Visibility: 6 or more miles (10+ km)
Ceiling: 2500 feet AGL
Clouds: broken clouds at 2500 feet AGL
overcast cloud deck at 3600 feet AGL
Weather: no significant weather observed at this time

METAR text: YMAV 251930Z AUTO 29012KT 9999 // SCT027 BKN033 OVC071 14/11 Q1014
Conditions at: YMAV (AVALON AIRPORT , AU) observed 1930 UTC 25 April 2019
Temperature: 14.0°C (57°F)
Dewpoint: 11.0°C (52°F) [RH = 82%]
Pressure (altimeter): 29.94 inches Hg (1014.0 mb)
Winds: from the WNW (290 degrees) at 14 MPH (12 knots; 6.2 m/s)
Visibility: 6 or more miles (10+ km)
Ceiling: 3300 feet AGL
Clouds: scattered clouds at 2700 feet AGL
broken clouds at 3300 feet AGL
overcast cloud deck at 7100 feet AGL
Weather: no significant weather observed at this time

METAR text: YMAV 251900Z AUTO 27015KT 9999 // SCT025 BKN044 BKN051 14/11 Q1014
Conditions at: YMAV (AVALON AIRPORT , AU) observed 1900 UTC 25 April 2019
Temperature: 14.0°C (57°F)
Dewpoint: 11.0°C (52°F) [RH = 82%]
Pressure (altimeter): 29.94 inches Hg (1014.0 mb)
Winds: from the W (270 degrees) at 17 MPH (15 knots; 7.7 m/s)
Visibility: 6 or more miles (10+ km)
Ceiling: 4400 feet AGL
Clouds: scattered clouds at 2500 feet AGL
broken clouds at 4400 feet AGL
broken clouds at 5100 feet AGL
Weather: no significant weather observed at this time

METAR text: YMAV 251846Z AUTO 26017G27KT 9999 -SHRA SCT023 BKN027 OVC032 14/11 Q1014
Conditions at: YMAV (AVALON AIRPORT , AU) observed 1846 UTC 25 April 2019
Temperature: 14.0°C (57°F)
Dewpoint: 11.0°C (52°F) [RH = 82%]
Pressure (altimeter): 29.94 inches Hg (1014.0 mb)
Winds: from the W (260 degrees) at 20 MPH (17 knots; 8.7 m/s)
gusting to 31 MPH (27 knots; 13.9 m/s)
Visibility: 6 or more miles (10+ km)
Ceiling: 2700 feet AGL
Clouds: scattered clouds at 2300 feet AGL
broken clouds at 2700 feet AGL
overcast cloud deck at 3200 feet AGL
Weather: -SHRA  (light rain showers)

METAR text: YMAV 251830Z AUTO 30018KT 9999 // OVC029 OVC034 15/10 Q1013
Conditions at: YMAV (AVALON AIRPORT , AU) observed 1830 UTC 25 April 2019
Temperature: 15.0°C (59°F)
Dewpoint: 10.0°C (50°F) [RH = 72%]
Pressure (altimeter): 29.91 inches Hg (1013.0 mb)
Winds: from the WNW (300 degrees) at 21 MPH (18 knots; 9.3 m/s)
Visibility: 6 or more miles (10+ km)
Ceiling: 2900 feet AGL
Clouds: overcast cloud deck at 2900 feet AGL
overcast cloud deck at 3400 feet AGL
Weather: no significant weather observed at this time

METAR text: YMAV 251800Z AUTO 30017KT 9999 // SCT033 BKN041 OVC054 15/09 Q1013
Conditions at: YMAV (AVALON AIRPORT , AU) observed 1800 UTC 25 April 2019
Temperature: 15.0°C (59°F)
Dewpoint: 9.0°C (48°F) [RH = 67%]
Pressure (altimeter): 29.91 inches Hg (1013.0 mb)
Winds: from the WNW (300 degrees) at 20 MPH (17 knots; 8.7 m/s)
Visibility: 6 or more miles (10+ km)
Ceiling: 4100 feet AGL
Clouds: scattered clouds at 3300 feet AGL
broken clouds at 4100 feet AGL
overcast cloud deck at 5400 feet AGL
Weather: no significant weather observed at this time

METAR text: YMAV 251730Z AUTO 30011KT 9999 // BKN033 BKN039 OVC047 15/10 Q1013
Conditions at: YMAV (AVALON AIRPORT , AU) observed 1730 UTC 25 April 2019
Temperature: 15.0°C (59°F)
Dewpoint: 10.0°C (50°F) [RH = 72%]
Pressure (altimeter): 29.91 inches Hg (1013.0 mb)
Winds: from the WNW (300 degrees) at 13 MPH (11 knots; 5.7 m/s)
Visibility: 6 or more miles (10+ km)
Ceiling: 3300 feet AGL
Clouds: broken clouds at 3300 feet AGL
broken clouds at 3900 feet AGL
overcast cloud deck at 4700 feet AGL
Weather: no significant weather observed at this time

METAR text: YMAV 251703Z AUTO 29024G34KT 9999 // SCT014 OVC033 15/10 Q1014
Conditions at: YMAV (AVALON AIRPORT , AU) observed 1703 UTC 25 April 2019
Temperature: 15.0°C (59°F)
Dewpoint: 10.0°C (50°F) [RH = 72%]
Pressure (altimeter): 29.94 inches Hg (1014.0 mb)
Winds: from the WNW (290 degrees) at 28 MPH (24 knots; 12.3 m/s)
gusting to 39 MPH (34 knots; 17.5 m/s)
Visibility: 6 or more miles (10+ km)
Ceiling: 3300 feet AGL
Clouds: scattered clouds at 1400 feet AGL
overcast cloud deck at 3300 feet AGL
Weather: no significant weather observed at this time

METAR text: YMAV 251700Z AUTO 29027KT 9999 // SCT014 SCT029 OVC035 15/10 Q1014
Conditions at: YMAV (AVALON AIRPORT , AU) observed 1700 UTC 25 April 2019
Temperature: 15.0°C (59°F)
Dewpoint: 10.0°C (50°F) [RH = 72%]
Pressure (altimeter): 29.94 inches Hg (1014.0 mb)
Winds: from the WNW (290 degrees) at 31 MPH (27 knots; 13.9 m/s)
Visibility: 6 or more miles (10+ km)
Ceiling: 3500 feet AGL
Clouds: scattered clouds at 1400 feet AGL
scattered clouds at 2900 feet AGL
overcast cloud deck at 3500 feet AGL
Weather: no significant weather observed at this time

METAR text: YMAV 251654Z AUTO 29030KT 9999 // OVC037 16/09 Q1013 RF00.0/000.0
Conditions at: YMAV (AVALON AIRPORT , AU) observed 1654 UTC 25 April 2019
Temperature: 16.0°C (61°F)
Dewpoint: 9.0°C (48°F) [RH = 63%]
Pressure (altimeter): 29.91 inches Hg (1013.0 mb)
Winds: from the WNW (290 degrees) at 34 MPH (30 knots; 15.4 m/s)
Visibility: 6 or more miles (10+ km)
Ceiling: 3700 feet AGL
Clouds: overcast cloud deck at 3700 feet AGL
Weather: no significant weather observed at this time

METAR text: YMAV 251637Z AUTO 30018G29KT 9999 // OVC037 16/08 Q1013 RF00.0/000.0
Conditions at: YMAV (AVALON AIRPORT , AU) observed 1637 UTC 25 April 2019
Temperature: 16.0°C (61°F)
Dewpoint: 8.0°C (46°F) [RH = 59%]
Pressure (altimeter): 29.91 inches Hg (1013.0 mb)
Winds: from the WNW (300 degrees) at 21 MPH (18 knots; 9.3 m/s)
gusting to 33 MPH (29 knots; 14.9 m/s)
Visibility: 6 or more miles (10+ km)
Ceiling: 3700 feet AGL
Clouds: overcast cloud deck at 3700 feet AGL
Weather: no significant weather observed at this time

METAR text: YMAV 251600Z AUTO 31013KT 9999 // OVC041 16/08 Q1014 RF00.0/000.0
Conditions at: YMAV (AVALON AIRPORT , AU) observed 1600 UTC 25 April 2019
Temperature: 16.0°C (61°F)
Dewpoint: 8.0°C (46°F) [RH = 59%]
Pressure (altimeter): 29.94 inches Hg (1014.0 mb)
Winds: from the NW (310 degrees) at 15 MPH (13 knots; 6.7 m/s)
Visibility: 6 or more miles (10+ km)
Ceiling: 4100 feet AGL
Clouds: overcast cloud deck at 4100 feet AGL
Weather: no significant weather observed at this time

METAR text: YMAV 251530Z AUTO 32013KT 9999 // OVC046 16/07 Q1014 RF00.0/000.0
Conditions at: YMAV (AVALON AIRPORT , AU) observed 1530 UTC 25 April 2019
Temperature: 16.0°C (61°F)
Dewpoint: 7.0°C (45°F) [RH = 55%]
Pressure (altimeter): 29.94 inches Hg (1014.0 mb)
Winds: from the NW (320 degrees) at 15 MPH (13 knots; 6.7 m/s)
Visibility: 6 or more miles (10+ km)
Ceiling: 4600 feet AGL
Clouds: overcast cloud deck at 4600 feet AGL
Weather: no significant weather observed at this time

METAR text: YMAV 251500Z AUTO 32011KT 9999 // OVC046 16/07 Q1015 RF00.0/000.0
Conditions at: YMAV (AVALON AIRPORT , AU) observed 1500 UTC 25 April 2019
Temperature: 16.0°C (61°F)
Dewpoint: 7.0°C (45°F) [RH = 55%]
Pressure (altimeter): 29.97 inches Hg (1015.0 mb)
Winds: from the NW (320 degrees) at 13 MPH (11 knots; 5.7 m/s)
Visibility: 6 or more miles (10+ km)
Ceiling: 4600 feet AGL
Clouds: overcast cloud deck at 4600 feet AGL
Weather: no significant weather observed at this time

METAR text: YMAV 251430Z AUTO 32011KT 9999 // OVC046 16/08 Q1015 RF00.0/000.0
Conditions at: YMAV (AVALON AIRPORT , AU) observed 1430 UTC 25 April 2019
Temperature: 16.0°C (61°F)
Dewpoint: 8.0°C (46°F) [RH = 59%]
Pressure (altimeter): 29.97 inches Hg (1015.0 mb)
Winds: from the NW (320 degrees) at 13 MPH (11 knots; 5.7 m/s)
Visibility: 6 or more miles (10+ km)
Ceiling: 4600 feet AGL
Clouds: overcast cloud deck at 4600 feet AGL
Weather: no significant weather observed at this time

METAR text: YMAV 251400Z AUTO 31012KT 9999 // BKN046 15/07 Q1015 RF00.0/000.0
Conditions at: YMAV (AVALON AIRPORT , AU) observed 1400 UTC 25 April 2019
Temperature: 15.0°C (59°F)
Dewpoint: 7.0°C (45°F) [RH = 59%]
Pressure (altimeter): 29.97 inches Hg (1015.0 mb)
Winds: from the NW (310 degrees) at 14 MPH (12 knots; 6.2 m/s)
Visibility: 6 or more miles (10+ km)
Ceiling: 4600 feet AGL
Clouds: broken clouds at 4600 feet AGL
Weather: no significant weather observed at this time

METAR text: YMAV 251330Z AUTO 29014KT 9999 // BKN046 15/08 Q1016 RF00.0/000.0
Conditions at: YMAV (AVALON AIRPORT , AU) observed 1330 UTC 25 April 2019
Temperature: 15.0°C (59°F)
Dewpoint: 8.0°C (46°F) [RH = 63%]
Pressure (altimeter): 30.00 inches Hg (1016.0 mb)
Winds: from the WNW (290 degrees) at 16 MPH (14 knots; 7.2 m/s)
Visibility: 6 or more miles (10+ km)
Ceiling: 4600 feet AGL
Clouds: broken clouds at 4600 feet AGL
Weather: no significant weather observed at this time

METAR text: YMAV 251300Z AUTO 29013KT 9999 // NCD 14/08 Q1016 RF00.0/000.0
Conditions at: YMAV (AVALON AIRPORT , AU) observed 1300 UTC 25 April 2019
Temperature: 14.0°C (57°F)
Dewpoint: 8.0°C (46°F) [RH = 67%]
Pressure (altimeter): 30.00 inches Hg (1016.0 mb)
Winds: from the WNW (290 degrees) at 15 MPH (13 knots; 6.7 m/s)
Visibility: 6 or more miles (10+ km)
Ceiling: at least 12,000 feet AGL
Clouds: sky clear below 12,000 feet AGL
Weather: no significant weather observed at this time

METAR text: YMAV 251230Z AUTO 29015KT 9999 // SCT050 15/08 Q1016 RF00.0/000.0
Conditions at: YMAV (AVALON AIRPORT , AU) observed 1230 UTC 25 April 2019
Temperature: 15.0°C (59°F)
Dewpoint: 8.0°C (46°F) [RH = 63%]
Pressure (altimeter): 30.00 inches Hg (1016.0 mb)
Winds: from the WNW (290 degrees) at 17 MPH (15 knots; 7.7 m/s)
Visibility: 6 or more miles (10+ km)
Ceiling: at least 12,000 feet AGL
Clouds: scattered clouds at 5000 feet AGL
Weather: no significant weather observed at this time

METAR text: YMAV 251200Z AUTO 29017KT 9999 // NCD 15/08 Q1016 RF00.0/000.0
Conditions at: YMAV (AVALON AIRPORT , AU) observed 1200 UTC 25 April 2019
Temperature: 15.0°C (59°F)
Dewpoint: 8.0°C (46°F) [RH = 63%]
Pressure (altimeter): 30.00 inches Hg (1016.0 mb)
Winds: from the WNW (290 degrees) at 20 MPH (17 knots; 8.7 m/s)
Visibility: 6 or more miles (10+ km)
Ceiling: at least 12,000 feet AGL
Clouds: sky clear below 12,000 feet AGL
Weather: no significant weather observed at this time

METAR text: YMAV 251130Z AUTO 28016KT 9999 // NCD 15/08 Q1016 RF00.0/000.0
Conditions at: YMAV (AVALON AIRPORT , AU) observed 1130 UTC 25 April 2019
Temperature: 15.0°C (59°F)
Dewpoint: 8.0°C (46°F) [RH = 63%]
Pressure (altimeter): 30.00 inches Hg (1016.0 mb)
Winds: from the W (280 degrees) at 18 MPH (16 knots; 8.2 m/s)
Visibility: 6 or more miles (10+ km)
Ceiling: at least 12,000 feet AGL
Clouds: sky clear below 12,000 feet AGL
Weather: no significant weather observed at this time

METAR text: YMAV 251100Z AUTO 28013KT 9999 // NCD 15/08 Q1016 RF00.0/000.0
Conditions at: YMAV (AVALON AIRPORT , AU) observed 1100 UTC 25 April 2019
Temperature: 15.0°C (59°F)
Dewpoint: 8.0°C (46°F) [RH = 63%]
Pressure (altimeter): 30.00 inches Hg (1016.0 mb)
Winds: from the W (280 degrees) at 15 MPH (13 knots; 6.7 m/s)
Visibility: 6 or more miles (10+ km)
Ceiling: at least 12,000 feet AGL
Clouds: sky clear below 12,000 feet AGL
Weather: no significant weather observed at this time

METAR text: YMAV 251030Z AUTO 26006KT 9999 // NCD 15/08 Q1016 RF00.0/000.0
Conditions at: YMAV (AVALON AIRPORT , AU) observed 1030 UTC 25 April 2019
Temperature: 15.0°C (59°F)
Dewpoint: 8.0°C (46°F) [RH = 63%]
Pressure (altimeter): 30.00 inches Hg (1016.0 mb)
Winds: from the W (260 degrees) at 7 MPH (6 knots; 3.1 m/s)
Visibility: 6 or more miles (10+ km)
Ceiling: at least 12,000 feet AGL
Clouds: sky clear below 12,000 feet AGL
Weather: no significant weather observed at this time

METAR text: YMAV 251000Z AUTO 35007KT 9999 // NCD 14/08 Q1016 RF00.0/000.0
Conditions at: YMAV (AVALON AIRPORT , AU) observed 1000 UTC 25 April 2019
Temperature: 14.0°C (57°F)
Dewpoint: 8.0°C (46°F) [RH = 67%]
Pressure (altimeter): 30.00 inches Hg (1016.0 mb)
Winds: from the N (350 degrees) at 8 MPH (7 knots; 3.6 m/s)
Visibility: 6 or more miles (10+ km)
Ceiling: at least 12,000 feet AGL
Clouds: sky clear below 12,000 feet AGL
Weather: no significant weather observed at this time

METAR text: YMAV 250930Z AUTO 34005KT 9999 // NCD 14/07 Q1016 RF00.0/000.0
Conditions at: YMAV (AVALON AIRPORT , AU) observed 0930 UTC 25 April 2019
Temperature: 14.0°C (57°F)
Dewpoint: 7.0°C (45°F) [RH = 63%]
Pressure (altimeter): 30.00 inches Hg (1016.0 mb)
Winds: from the NNW (340 degrees) at 6 MPH (5 knots; 2.6 m/s)
Visibility: 6 or more miles (10+ km)
Ceiling: at least 12,000 feet AGL
Clouds: sky clear below 12,000 feet AGL
Weather: no significant weather observed at this time

METAR text: YMAV 250900Z AUTO 30005KT 9999 // NCD 16/08 Q1016 RF00.0/000.0
Conditions at: YMAV (AVALON AIRPORT , AU) observed 0900 UTC 25 April 2019
Temperature: 16.0°C (61°F)
Dewpoint: 8.0°C (46°F) [RH = 59%]
Pressure (altimeter): 30.00 inches Hg (1016.0 mb)
Winds: from the WNW (300 degrees) at 6 MPH (5 knots; 2.6 m/s)
Visibility: 6 or more miles (10+ km)
Ceiling: at least 12,000 feet AGL
Clouds: sky clear below 12,000 feet AGL
Weather: no significant weather observed at this time

METAR text: YMAV 250830Z AUTO 27005KT 9999 // NCD 16/07 Q1016 RF00.0/000.0
Conditions at: YMAV (AVALON AIRPORT , AU) observed 0830 UTC 25 April 2019
Temperature: 16.0°C (61°F)
Dewpoint: 7.0°C (45°F) [RH = 55%]
Pressure (altimeter): 30.00 inches Hg (1016.0 mb)
Winds: from the W (270 degrees) at 6 MPH (5 knots; 2.6 m/s)
Visibility: 6 or more miles (10+ km)
Ceiling: at least 12,000 feet AGL
Clouds: sky clear below 12,000 feet AGL
Weather: no significant weather observed at this time

METAR text: YMAV 250800Z AUTO 26006KT 9999 // NCD 17/08 Q1016 RF00.0/000.0
Conditions at: YMAV (AVALON AIRPORT , AU) observed 0800 UTC 25 April 2019
Temperature: 17.0°C (63°F)
Dewpoint: 8.0°C (46°F) [RH = 55%]
Pressure (altimeter): 30.00 inches Hg (1016.0 mb)
Winds: from the W (260 degrees) at 7 MPH (6 knots; 3.1 m/s)
Visibility: 6 or more miles (10+ km)
Ceiling: at least 12,000 feet AGL
Clouds: sky clear below 12,000 feet AGL
Weather: no significant weather observed at this time

METAR text: YMAV 250730Z AUTO 28011KT 9999 // SCT061 19/08 Q1016 RF00.0/000.0
Conditions at: YMAV (AVALON AIRPORT , AU) observed 0730 UTC 25 April 2019
Temperature: 19.0°C (66°F)
Dewpoint: 8.0°C (46°F) [RH = 49%]
Pressure (altimeter): 30.00 inches Hg (1016.0 mb)
Winds: from the W (280 degrees) at 13 MPH (11 knots; 5.7 m/s)
Visibility: 6 or more miles (10+ km)
Ceiling: at least 12,000 feet AGL
Clouds: scattered clouds at 6100 feet AGL
Weather: no significant weather observed at this time

METAR text: YMAV 250700Z AUTO 28014KT 9999 // NCD 20/08 Q1016 RF00.0/000.0
Conditions at: YMAV (AVALON AIRPORT , AU) observed 0700 UTC 25 April 2019
Temperature: 20.0°C (68°F)
Dewpoint: 8.0°C (46°F) [RH = 46%]
Pressure (altimeter): 30.00 inches Hg (1016.0 mb)
Winds: from the W (280 degrees) at 16 MPH (14 knots; 7.2 m/s)
Visibility: 6 or more miles (10+ km)
Ceiling: at least 12,000 feet AGL
Clouds: sky clear below 12,000 feet AGL
Weather: no significant weather observed at this time

METAR text: YMAV 250630Z AUTO 27015KT 9999 // NCD 20/08 Q1016 RF00.0/000.0
Conditions at: YMAV (AVALON AIRPORT , AU) observed 0630 UTC 25 April 2019
Temperature: 20.0°C (68°F)
Dewpoint: 8.0°C (46°F) [RH = 46%]
Pressure (altimeter): 30.00 inches Hg (1016.0 mb)
Winds: from the W (270 degrees) at 17 MPH (15 knots; 7.7 m/s)
Visibility: 6 or more miles (10+ km)
Ceiling: at least 12,000 feet AGL
Clouds: sky clear below 12,000 feet AGL
Weather: no significant weather observed at this time

METAR text: YMAV 250600Z AUTO 27015KT 9999 // NCD 21/08 Q1016 RF00.0/000.0
Conditions at: YMAV (AVALON AIRPORT , AU) observed 0600 UTC 25 April 2019
Temperature: 21.0°C (70°F)
Dewpoint: 8.0°C (46°F) [RH = 43%]
Pressure (altimeter): 30.00 inches Hg (1016.0 mb)
Winds: from the W (270 degrees) at 17 MPH (15 knots; 7.7 m/s)
Visibility: 6 or more miles (10+ km)
Ceiling: at least 12,000 feet AGL
Clouds: sky clear below 12,000 feet AGL
Weather: no significant weather observed at this time

METAR text: YMAV 250530Z AUTO 28018KT 9999 // NCD 21/07 Q1017 RF00.0/000.0
Conditions at: YMAV (AVALON AIRPORT , AU) observed 0530 UTC 25 April 2019
Temperature: 21.0°C (70°F)
Dewpoint: 7.0°C (45°F) [RH = 40%]
Pressure (altimeter): 30.03 inches Hg (1017.0 mb)
Winds: from the W (280 degrees) at 21 MPH (18 knots; 9.3 m/s)
Visibility: 6 or more miles (10+ km)
Ceiling: at least 12,000 feet AGL
Clouds: sky clear below 12,000 feet AGL
Weather: no significant weather observed at this time

METAR text: YMAV 250500Z AUTO 28017KT 9999 // SCT049 20/08 Q1017 RF00.0/000.0
Conditions at: YMAV (AVALON AIRPORT , AU) observed 0500 UTC 25 April 2019
Temperature: 20.0°C (68°F)
Dewpoint: 8.0°C (46°F) [RH = 46%]
Pressure (altimeter): 30.03 inches Hg (1017.0 mb)
Winds: from the W (280 degrees) at 20 MPH (17 knots; 8.7 m/s)
Visibility: 6 or more miles (10+ km)
Ceiling: at least 12,000 feet AGL
Clouds: scattered clouds at 4900 feet AGL
Weather: no significant weather observed at this time

METAR text: YMAV 250430Z AUTO 28017KT 9999 // SCT049 20/08 Q1017 RF00.0/000.0
Conditions at: YMAV (AVALON AIRPORT , AU) observed 0430 UTC 25 April 2019
Temperature: 20.0°C (68°F)
Dewpoint: 8.0°C (46°F) [RH = 46%]
Pressure (altimeter): 30.03 inches Hg (1017.0 mb)
Winds: from the W (280 degrees) at 20 MPH (17 knots; 8.7 m/s)
Visibility: 6 or more miles (10+ km)
Ceiling: at least 12,000 feet AGL
Clouds: scattered clouds at 4900 feet AGL
Weather: no significant weather observed at this time

METAR text: YMAV 250414Z AUTO 28015G25KT 9999 // SCT049 20/08 Q1018 RF00.0/000.0
Conditions at: YMAV (AVALON AIRPORT , AU) observed 0414 UTC 25 April 2019
Temperature: 20.0°C (68°F)
Dewpoint: 8.0°C (46°F) [RH = 46%]
Pressure (altimeter): 30.06 inches Hg (1018.0 mb)
Winds: from the W (280 degrees) at 17 MPH (15 knots; 7.7 m/s)
gusting to 29 MPH (25 knots; 12.9 m/s)
Visibility: 6 or more miles (10+ km)
Ceiling: at least 12,000 feet AGL
Clouds: scattered clouds at 4900 feet AGL
Weather: no significant weather observed at this time

METAR text: YMAV 250400Z AUTO 28016KT 9999 // BKN049 20/09 Q1018 RF00.0/000.0
Conditions at: YMAV (AVALON AIRPORT , AU) observed 0400 UTC 25 April 2019
Temperature: 20.0°C (68°F)
Dewpoint: 9.0°C (48°F) [RH = 49%]
Pressure (altimeter): 30.06 inches Hg (1018.0 mb)
Winds: from the W (280 degrees) at 18 MPH (16 knots; 8.2 m/s)
Visibility: 6 or more miles (10+ km)
Ceiling: 4900 feet AGL
Clouds: broken clouds at 4900 feet AGL
Weather: no significant weather observed at this time

METAR text: YMAV 250330Z AUTO 28017KT 9999 // OVC047 20/08 Q1019 RF00.0/000.0
Conditions at: YMAV (AVALON AIRPORT , AU) observed 0330 UTC 25 April 2019
Temperature: 20.0°C (68°F)
Dewpoint: 8.0°C (46°F) [RH = 46%]
Pressure (altimeter): 30.09 inches Hg (1019.0 mb)
Winds: from the W (280 degrees) at 20 MPH (17 knots; 8.7 m/s)
Visibility: 6 or more miles (10+ km)
Ceiling: 4700 feet AGL
Clouds: overcast cloud deck at 4700 feet AGL
Weather: no significant weather observed at this time

METAR text: YMAV 250300Z AUTO 29020KT 9999 // OVC045 19/09 Q1019 RF00.0/000.0
Conditions at: YMAV (AVALON AIRPORT , AU) observed 0300 UTC 25 April 2019
Temperature: 19.0°C (66°F)
Dewpoint: 9.0°C (48°F) [RH = 52%]
Pressure (altimeter): 30.09 inches Hg (1019.0 mb)
Winds: from the WNW (290 degrees) at 23 MPH (20 knots; 10.3 m/s)
Visibility: 6 or more miles (10+ km)
Ceiling: 4500 feet AGL
Clouds: overcast cloud deck at 4500 feet AGL
Weather: no significant weather observed at this time

METAR text: YMAV 250230Z AUTO 27016KT 9999 // OVC043 19/09 Q1020 RF00.0/000.0
Conditions at: YMAV (AVALON AIRPORT , AU) observed 0230 UTC 25 April 2019
Temperature: 19.0°C (66°F)
Dewpoint: 9.0°C (48°F) [RH = 52%]
Pressure (altimeter): 30.12 inches Hg (1020.0 mb)
Winds: from the W (270 degrees) at 18 MPH (16 knots; 8.2 m/s)
Visibility: 6 or more miles (10+ km)
Ceiling: 4300 feet AGL
Clouds: overcast cloud deck at 4300 feet AGL
Weather: no significant weather observed at this time

METAR text: YMAV 250200Z AUTO 30017KT 9999 // OVC041 19/09 Q1020 RF00.0/000.0
Conditions at: YMAV (AVALON AIRPORT , AU) observed 0200 UTC 25 April 2019
Temperature: 19.0°C (66°F)
Dewpoint: 9.0°C (48°F) [RH = 52%]
Pressure (altimeter): 30.12 inches Hg (1020.0 mb)
Winds: from the WNW (300 degrees) at 20 MPH (17 knots; 8.7 m/s)
Visibility: 6 or more miles (10+ km)
Ceiling: 4100 feet AGL
Clouds: overcast cloud deck at 4100 feet AGL
Weather: no significant weather observed at this time

METAR text: YMAV 250130Z AUTO 28014KT 9999 // SCT035 OVC043 18/10 Q1020
Conditions at: YMAV (AVALON AIRPORT , AU) observed 0130 UTC 25 April 2019
Temperature: 18.0°C (64°F)
Dewpoint: 10.0°C (50°F) [RH = 59%]
Pressure (altimeter): 30.12 inches Hg (1020.0 mb)
Winds: from the W (280 degrees) at 16 MPH (14 knots; 7.2 m/s)
Visibility: 6 or more miles (10+ km)
Ceiling: 4300 feet AGL
Clouds: scattered clouds at 3500 feet AGL
overcast cloud deck at 4300 feet AGL
Weather: no significant weather observed at this time

METAR text: YMAV 250100Z AUTO 29014KT 9999 // SCT029 SCT035 OVC043 17/11 Q1021
Conditions at: YMAV (AVALON AIRPORT , AU) observed 0100 UTC 25 April 2019
Temperature: 17.0°C (63°F)
Dewpoint: 11.0°C (52°F) [RH = 68%]
Pressure (altimeter): 30.15 inches Hg (1021.0 mb)
Winds: from the WNW (290 degrees) at 16 MPH (14 knots; 7.2 m/s)
Visibility: 6 or more miles (10+ km)
Ceiling: 4300 feet AGL
Clouds: scattered clouds at 2900 feet AGL
scattered clouds at 3500 feet AGL
overcast cloud deck at 4300 feet AGL
Weather: no significant weather observed at this time

METAR text: YMAV 250030Z AUTO 31010KT 9999 // SCT023 SCT027 SCT034 18/12 Q1021
Conditions at: YMAV (AVALON AIRPORT , AU) observed 0030 UTC 25 April 2019
Temperature: 18.0°C (64°F)
Dewpoint: 12.0°C (54°F) [RH = 68%]
Pressure (altimeter): 30.15 inches Hg (1021.0 mb)
Winds: from the NW (310 degrees) at 12 MPH (10 knots; 5.1 m/s)
Visibility: 6 or more miles (10+ km)
Ceiling: at least 12,000 feet AGL
Clouds: scattered clouds at 2300 feet AGL
scattered clouds at 2700 feet AGL
scattered clouds at 3400 feet AGL
Weather: no significant weather observed at this time

METAR text: YMAV 250000Z AUTO 30008KT 9999 // BKN044 16/13 Q1021 RF00.0/000.0
Conditions at: YMAV (AVALON AIRPORT , AU) observed 0000 UTC 25 April 2019
Temperature: 16.0°C (61°F)
Dewpoint: 13.0°C (55°F) [RH = 82%]
Pressure (altimeter): 30.15 inches Hg (1021.0 mb)
Winds: from the WNW (300 degrees) at 9 MPH (8 knots; 4.1 m/s)
Visibility: 6 or more miles (10+ km)
Ceiling: 4400 feet AGL
Clouds: broken clouds at 4400 feet AGL
Weather: no significant weather observed at this time

METAR text: YMAV 242330Z AUTO 30009KT 9999 // OVC046 15/12 Q1021 RF00.0/000.0
Conditions at: YMAV (AVALON AIRPORT , AU) observed 2330 UTC 24 April 2019
Temperature: 15.0°C (59°F)
Dewpoint: 12.0°C (54°F) [RH = 82%]
Pressure (altimeter): 30.15 inches Hg (1021.0 mb)
Winds: from the WNW (300 degrees) at 10 MPH (9 knots; 4.6 m/s)
Visibility: 6 or more miles (10+ km)
Ceiling: 4600 feet AGL
Clouds: overcast cloud deck at 4600 feet AGL
Weather: no significant weather observed at this time

METAR text: YMAV 242300Z AUTO 31009KT 9999 // OVC046 14/12 Q1021 RF00.0/000.2
Conditions at: YMAV (AVALON AIRPORT , AU) observed 2300 UTC 24 April 2019
Temperature: 14.0°C (57°F)
Dewpoint: 12.0°C (54°F) [RH = 88%]
Pressure (altimeter): 30.15 inches Hg (1021.0 mb)
Winds: from the NW (310 degrees) at 10 MPH (9 knots; 4.6 m/s)
Visibility: 6 or more miles (10+ km)
Ceiling: 4600 feet AGL
Clouds: overcast cloud deck at 4600 feet AGL
Weather: no significant weather observed at this time

METAR text: YMAV 242230Z AUTO 32008KT 9999 // SCT014 OVC044 13/11 Q1022
Conditions at: YMAV (AVALON AIRPORT , AU) observed 2230 UTC 24 April 2019
Temperature: 13.0°C (55°F)
Dewpoint: 11.0°C (52°F) [RH = 88%]
Pressure (altimeter): 30.18 inches Hg (1022.0 mb)
Winds: from the NW (320 degrees) at 9 MPH (8 knots; 4.1 m/s)
Visibility: 6 or more miles (10+ km)
Ceiling: 4400 feet AGL
Clouds: scattered clouds at 1400 feet AGL
overcast cloud deck at 4400 feet AGL
Weather: no significant weather observed at this time

METAR text: YMAV 242200Z AUTO 32007KT 9999 // SCT023 SCT029 OVC044 12/11 Q1022
Conditions at: YMAV (AVALON AIRPORT , AU) observed 2200 UTC 24 April 2019
Temperature: 12.0°C (54°F)
Dewpoint: 11.0°C (52°F) [RH = 94%]
Pressure (altimeter): 30.18 inches Hg (1022.0 mb)
Winds: from the NW (320 degrees) at 8 MPH (7 knots; 3.6 m/s)
Visibility: 6 or more miles (10+ km)
Ceiling: 4400 feet AGL
Clouds: scattered clouds at 2300 feet AGL
scattered clouds at 2900 feet AGL
overcast cloud deck at 4400 feet AGL
Weather: no significant weather observed at this time

METAR text: YMAV 242130Z AUTO 32004KT 9999 // OVC048 11/11 Q1021 RF00.0/000.2
Conditions at: YMAV (AVALON AIRPORT , AU) observed 2130 UTC 24 April 2019
Temperature: 11.0°C (52°F)
Dewpoint: 11.0°C (52°F) [RH = 100%]
Pressure (altimeter): 30.15 inches Hg (1021.0 mb)
Winds: from the NW (320 degrees) at 5 MPH (4 knots; 2.1 m/s)
Visibility: 6 or more miles (10+ km)
Ceiling: 4800 feet AGL
Clouds: overcast cloud deck at 4800 feet AGL
Weather: no significant weather observed at this time

METAR text: YMAV 242100Z AUTO 34003KT 9999 // OVC046 10/10 Q1022 RF00.0/000.2
Conditions at: YMAV (AVALON AIRPORT , AU) observed 2100 UTC 24 April 2019
Temperature: 10.0°C (50°F)
Dewpoint: 10.0°C (50°F) [RH = 100%]
Pressure (altimeter): 30.18 inches Hg (1022.0 mb)
Winds: from the NNW (340 degrees) at 3 MPH (3 knots; 1.5 m/s)
Visibility: 6 or more miles (10+ km)
Ceiling: 4600 feet AGL
Clouds: overcast cloud deck at 4600 feet AGL
Weather: no significant weather observed at this time

METAR text: YMAV 242030Z AUTO 33006KT 9999 // OVC046 11/10 Q1021 RF00.0/000.2
Conditions at: YMAV (AVALON AIRPORT , AU) observed 2030 UTC 24 April 2019
Temperature: 11.0°C (52°F)
Dewpoint: 10.0°C (50°F) [RH = 94%]
Pressure (altimeter): 30.15 inches Hg (1021.0 mb)
Winds: from the NNW (330 degrees) at 7 MPH (6 knots; 3.1 m/s)
Visibility: 6 or more miles (10+ km)
Ceiling: 4600 feet AGL
Clouds: overcast cloud deck at 4600 feet AGL
Weather: no significant weather observed at this time

METAR text: YMAV 242000Z AUTO 31007KT 9999 // SCT022 BKN046 10/10 Q1021
Conditions at: YMAV (AVALON AIRPORT , AU) observed 2000 UTC 24 April 2019
Temperature: 10.0°C (50°F)
Dewpoint: 10.0°C (50°F) [RH = 100%]
Pressure (altimeter): 30.15 inches Hg (1021.0 mb)
Winds: from the NW (310 degrees) at 8 MPH (7 knots; 3.6 m/s)
Visibility: 6 or more miles (10+ km)
Ceiling: 4600 feet AGL
Clouds: scattered clouds at 2200 feet AGL
broken clouds at 4600 feet AGL
Weather: no significant weather observed at this time

METAR text: YMAV 241930Z AUTO 31007KT 9999 // BKN022 09/09 Q1021 RF00.0/000.2
Conditions at: YMAV (AVALON AIRPORT , AU) observed 1930 UTC 24 April 2019
Temperature: 9.0°C (48°F)
Dewpoint: 9.0°C (48°F) [RH = 100%]
Pressure (altimeter): 30.15 inches Hg (1021.0 mb)
Winds: from the NW (310 degrees) at 8 MPH (7 knots; 3.6 m/s)
Visibility: 6 or more miles (10+ km)
Ceiling: 2200 feet AGL
Clouds: broken clouds at 2200 feet AGL
Weather: no significant weather observed at this time

METAR text: YMAV 241900Z AUTO 27004KT 9999 // NCD 08/08 Q1021 RF00.0/000.2
Conditions at: YMAV (AVALON AIRPORT , AU) observed 1900 UTC 24 April 2019
Temperature: 8.0°C (46°F)
Dewpoint: 8.0°C (46°F) [RH = 100%]
Pressure (altimeter): 30.15 inches Hg (1021.0 mb)
Winds: from the W (270 degrees) at 5 MPH (4 knots; 2.1 m/s)
Visibility: 6 or more miles (10+ km)
Ceiling: at least 12,000 feet AGL
Clouds: sky clear below 12,000 feet AGL
Weather: no significant weather observed at this time

METAR text: YMAV 241830Z AUTO 28004KT 9999 // NCD 09/08 Q1021 RF00.0/000.2
Conditions at: YMAV (AVALON AIRPORT , AU) observed 1830 UTC 24 April 2019
Temperature: 9.0°C (48°F)
Dewpoint: 8.0°C (46°F) [RH = 93%]
Pressure (altimeter): 30.15 inches Hg (1021.0 mb)
Winds: from the W (280 degrees) at 5 MPH (4 knots; 2.1 m/s)
Visibility: 6 or more miles (10+ km)
Ceiling: at least 12,000 feet AGL
Clouds: sky clear below 12,000 feet AGL
Weather: no significant weather observed at this time

METAR text: YMAV 241800Z AUTO 29006KT 9999 // NCD 10/08 Q1021 RF00.0/000.2
Conditions at: YMAV (AVALON AIRPORT , AU) observed 1800 UTC 24 April 2019
Temperature: 10.0°C (50°F)
Dewpoint: 8.0°C (46°F) [RH = 87%]
Pressure (altimeter): 30.15 inches Hg (1021.0 mb)
Winds: from the WNW (290 degrees) at 7 MPH (6 knots; 3.1 m/s)
Visibility: 6 or more miles (10+ km)
Ceiling: at least 12,000 feet AGL
Clouds: sky clear below 12,000 feet AGL
Weather: no significant weather observed at this time

METAR text: YMAV 241730Z AUTO 32009KT 9999 // NCD 11/09 Q1021 RF00.0/000.2
Conditions at: YMAV (AVALON AIRPORT , AU) observed 1730 UTC 24 April 2019
Temperature: 11.0°C (52°F)
Dewpoint: 9.0°C (48°F) [RH = 87%]
Pressure (altimeter): 30.15 inches Hg (1021.0 mb)
Winds: from the NW (320 degrees) at 10 MPH (9 knots; 4.6 m/s)
Visibility: 6 or more miles (10+ km)
Ceiling: at least 12,000 feet AGL
Clouds: sky clear below 12,000 feet AGL
Weather: no significant weather observed at this time

METAR text: YMAV 241700Z AUTO 33007KT 9999 // NCD 11/10 Q1022 RF00.0/000.2
Conditions at: YMAV (AVALON AIRPORT , AU) observed 1700 UTC 24 April 2019
Temperature: 11.0°C (52°F)
Dewpoint: 10.0°C (50°F) [RH = 94%]
Pressure (altimeter): 30.18 inches Hg (1022.0 mb)
Winds: from the NNW (330 degrees) at 8 MPH (7 knots; 3.6 m/s)
Visibility: 6 or more miles (10+ km)
Ceiling: at least 12,000 feet AGL
Clouds: sky clear below 12,000 feet AGL
Weather: no significant weather observed at this time

METAR text: YMAV 241630Z AUTO 31009KT 9999 // NCD 11/10 Q1022 RF00.0/000.2
Conditions at: YMAV (AVALON AIRPORT , AU) observed 1630 UTC 24 April 2019
Temperature: 11.0°C (52°F)
Dewpoint: 10.0°C (50°F) [RH = 94%]
Pressure (altimeter): 30.18 inches Hg (1022.0 mb)
Winds: from the NW (310 degrees) at 10 MPH (9 knots; 4.6 m/s)
Visibility: 6 or more miles (10+ km)
Ceiling: at least 12,000 feet AGL
Clouds: sky clear below 12,000 feet AGL
Weather: no significant weather observed at this time

Forecast for: AMD
Text: TAF AMD YMAV 252332Z 2600/2624 25018G35KT 9999 -SHRA FEW035 SCT045
Forecast period: 0000 to 0800 UTC 26 April 2019
Forecast type: FROM: standard forecast or significant change
Winds: from the WSW (250 degrees) at 21 MPH (18 knots; 9.3 m/s)
gusting to 40 MPH (35 knots; 18.0 m/s)
Visibility: 6 or more miles 10+ km)
Ceiling: at least 12,000 feet AGL
Clouds: few clouds at 3500 feet AGL
scattered clouds at 4500 feet AGL
Weather: -SHRA  (light rain showers)
Text: FM260800 25014KT CAVOK
Forecast period: 0800 to 1200 UTC 26 April 2019
Forecast type: FROM: standard forecast or significant change
Winds: from the WSW (250 degrees) at 16 MPH (14 knots; 7.2 m/s)
Visibility: 6 or more miles 10+ km)
Ceiling: unknown
Clouds: missing
Weather: NSW  (no significant weather)
Text: FM261200 28012KT CAVOK
Forecast period: 1200 to 1900 UTC 26 April 2019
Forecast type: FROM: standard forecast or significant change
Winds: from the W (280 degrees) at 14 MPH (12 knots; 6.2 m/s)
Visibility: 6 or more miles 10+ km)
Ceiling: unknown
Clouds: missing
Weather: NSW  (no significant weather)
Text: FM261900 27012KT 9999 SCT045
Forecast period: 1900 UTC 26 April 2019 to 0000 UTC 27 April 2019
Forecast type: FROM: standard forecast or significant change
Winds: from the W (270 degrees) at 14 MPH (12 knots; 6.2 m/s)
Visibility: 6 or more miles 10+ km)
Ceiling: at least 12,000 feet AGL
Clouds: scattered clouds at 4500 feet AGL
Weather: no significant weather forecast for this period